Portada
METAR-TAF:

METAR-TAF

Aeropuertos :

Trípoli, Libia

Aeropuerto Internacional Mitiga

latitud: 32-54N, longitud: 13-17E, altitud: 11 m

Observación

El informe se hizo hace 4 horas y 24 minutos, a las 21:50 UTC
Viento 12 kt del sur-sureste
Temperatura 22°C
Humedad 33%
Presión 1012 hPa
Visibilidad: 7000 m
Nubes dispersas a una altura de 3000 ft
Nubes dispersas a una altura de 8000 ft

METAR: HLLM 252150Z 15012KT 7000 SCT030 SCT080 22/05 Q1012

Hora: 04:14 (02:14 UTC)

Pronóstico

El informe se hizo hace 3 horas y 14 minutos, a las 23:00 UTC
Pronóstico válido del 26 a las 00 UTC al 26 a las 24 UTC
Viento 15 kt del sur
Visibilidad: 8000 m
Nubes dispersas a una altura de 3000 ft
Nubes dispersas a una altura de 8000 ft

TAF: HLLM 252300Z 2600/2624 19015KT 8000 SCT030 SCT080

Observaciones y pronósticos meteorológicos de más de 4000 aeropuertos (mensajes METAR y TAF).

Los puntos amarillos y rojos representan las estaciones disponibles.

Ponga el ratón en el punto deseado para ver el nombre de la estación.

Haga clic para ver las observaciones y los pronósticos meteorológicos.

Para cambiar el mapa : haga clic en los botones verdes con una cruz de color negro para hacer un zoom, en el botón verde con un guión para alejar o en las flechas verdes para mapas adyacentes.


METAR-TAF: